sensor_id;sensor_type;location;lat;lon;timestamp;P1;durP1;ratioP1;P2;durP2;ratioP2
36691;SDS011;22678;52.052;4.242;2024-01-30T00:01:41;12.30;;;6.50;;
36691;SDS011;22678;52.052;4.242;2024-01-30T00:04:06;11.10;;;6.70;;
36691;SDS011;22678;52.052;4.242;2024-01-30T00:06:31;12.88;;;7.43;;
36691;SDS011;22678;52.052;4.242;2024-01-30T00:08:57;12.88;;;6.32;;
36691;SDS011;22678;52.052;4.242;2024-01-30T00:11:22;13.90;;;7.43;;
36691;SDS011;22678;52.052;4.242;2024-01-30T00:13:50;10.98;;;6.88;;
36691;SDS011;22678;52.052;4.242;2024-01-30T00:16:22;10.82;;;5.93;;
36691;SDS011;22678;52.052;4.242;2024-01-30T00:18:51;15.82;;;7.82;;
36691;SDS011;22678;52.052;4.242;2024-01-30T00:21:17;10.23;;;5.57;;
36691;SDS011;22678;52.052;4.242;2024-01-30T00:23:43;11.53;;;5.67;;
36691;SDS011;22678;52.052;4.242;2024-01-30T00:26:08;11.52;;;6.93;;
36691;SDS011;22678;52.052;4.242;2024-01-30T00:28:34;16.00;;;6.50;;
36691;SDS011;22678;52.052;4.242;2024-01-30T00:30:59;10.65;;;5.93;;
36691;SDS011;22678;52.052;4.242;2024-01-30T00:33:25;12.20;;;6.40;;
36691;SDS011;22678;52.052;4.242;2024-01-30T00:35:50;12.63;;;6.80;;
36691;SDS011;22678;52.052;4.242;2024-01-30T00:38:16;13.60;;;5.90;;
36691;SDS011;22678;52.052;4.242;2024-01-30T00:40:41;14.05;;;6.43;;
36691;SDS011;22678;52.052;4.242;2024-01-30T00:43:07;11.23;;;6.70;;
36691;SDS011;22678;52.052;4.242;2024-01-30T00:45:33;12.23;;;6.83;;
36691;SDS011;22678;52.052;4.242;2024-01-30T00:47:59;12.73;;;6.32;;
36691;SDS011;22678;52.052;4.242;2024-01-30T00:50:24;10.23;;;5.88;;
36691;SDS011;22678;52.052;4.242;2024-01-30T00:52:49;10.68;;;5.47;;
36691;SDS011;22678;52.052;4.242;2024-01-30T00:55:15;11.70;;;6.47;;
36691;SDS011;22678;52.052;4.242;2024-01-30T00:57:40;14.23;;;6.78;;
36691;SDS011;22678;52.052;4.242;2024-01-30T01:00:06;11.77;;;5.78;;
36691;SDS011;22678;52.052;4.242;2024-01-30T01:02:34;13.87;;;6.40;;
36691;SDS011;22678;52.052;4.242;2024-01-30T01:04:59;12.47;;;7.63;;
36691;SDS011;22678;52.052;4.242;2024-01-30T01:07:25;12.77;;;7.55;;
36691;SDS011;22678;52.052;4.242;2024-01-30T01:09:50;14.65;;;7.38;;
36691;SDS011;22678;52.052;4.242;2024-01-30T01:12:15;12.20;;;6.93;;
36691;SDS011;22678;52.052;4.242;2024-01-30T01:14:41;12.88;;;6.68;;
36691;SDS011;22678;52.052;4.242;2024-01-30T01:17:06;16.02;;;6.30;;
36691;SDS011;22678;52.052;4.242;2024-01-30T01:19:32;11.68;;;6.45;;
36691;SDS011;22678;52.052;4.242;2024-01-30T01:21:57;12.77;;;6.45;;
36691;SDS011;22678;52.052;4.242;2024-01-30T01:24:23;9.00;;;5.45;;
36691;SDS011;22678;52.052;4.242;2024-01-30T01:26:49;9.13;;;5.18;;
36691;SDS011;22678;52.052;4.242;2024-01-30T01:29:14;13.80;;;5.77;;
36691;SDS011;22678;52.052;4.242;2024-01-30T01:31:40;11.32;;;7.00;;
36691;SDS011;22678;52.052;4.242;2024-01-30T01:34:12;12.48;;;6.47;;
36691;SDS011;22678;52.052;4.242;2024-01-30T01:36:38;13.70;;;6.40;;
36691;SDS011;22678;52.052;4.242;2024-01-30T01:39:04;15.82;;;7.00;;
36691;SDS011;22678;52.052;4.242;2024-01-30T01:41:30;17.50;;;6.93;;
36691;SDS011;22678;52.052;4.242;2024-01-30T01:43:57;12.48;;;6.15;;
36691;SDS011;22678;52.052;4.242;2024-01-30T01:46:22;10.13;;;6.45;;
36691;SDS011;22678;52.052;4.242;2024-01-30T01:48:48;12.40;;;6.05;;
36691;SDS011;22678;52.052;4.242;2024-01-30T01:51:14;13.15;;;6.93;;
36691;SDS011;22678;52.052;4.242;2024-01-30T01:53:40;12.53;;;6.33;;
36691;SDS011;22678;52.052;4.242;2024-01-30T01:56:06;8.48;;;5.55;;
36691;SDS011;22678;52.052;4.242;2024-01-30T01:58:31;10.48;;;6.07;;
36691;SDS011;22678;52.052;4.242;2024-01-30T02:00:57;10.05;;;6.57;;
36691;SDS011;22678;52.052;4.242;2024-01-30T02:03:24;12.25;;;5.93;;
36691;SDS011;22678;52.052;4.242;2024-01-30T02:05:52;9.13;;;5.50;;
36691;SDS011;22678;52.052;4.242;2024-01-30T02:08:18;12.27;;;6.07;;
36691;SDS011;22678;52.052;4.242;2024-01-30T02:10:44;12.27;;;5.90;;
36691;SDS011;22678;52.052;4.242;2024-01-30T02:13:09;10.82;;;5.90;;
36691;SDS011;22678;52.052;4.242;2024-01-30T02:15:35;10.32;;;6.45;;
36691;SDS011;22678;52.052;4.242;2024-01-30T02:18:00;11.65;;;6.25;;
36691;SDS011;22678;52.052;4.242;2024-01-30T02:20:25;11.10;;;5.63;;
36691;SDS011;22678;52.052;4.242;2024-01-30T02:22:54;10.00;;;5.53;;
36691;SDS011;22678;52.052;4.242;2024-01-30T02:25:29;11.43;;;5.78;;
36691;SDS011;22678;52.052;4.242;2024-01-30T02:27:58;10.10;;;5.45;;
36691;SDS011;22678;52.052;4.242;2024-01-30T02:30:24;10.18;;;5.43;;
36691;SDS011;22678;52.052;4.242;2024-01-30T02:32:49;15.73;;;7.13;;
36691;SDS011;22678;52.052;4.242;2024-01-30T02:35:14;9.80;;;5.72;;
36691;SDS011;22678;52.052;4.242;2024-01-30T02:37:40;10.27;;;5.83;;
36691;SDS011;22678;52.052;4.242;2024-01-30T02:40:05;13.32;;;6.80;;
36691;SDS011;22678;52.052;4.242;2024-01-30T02:42:31;11.48;;;5.68;;
36691;SDS011;22678;52.052;4.242;2024-01-30T02:44:56;12.07;;;6.47;;
36691;SDS011;22678;52.052;4.242;2024-01-30T02:47:22;16.40;;;7.65;;
36691;SDS011;22678;52.052;4.242;2024-01-30T02:49:47;14.05;;;5.88;;
36691;SDS011;22678;52.052;4.242;2024-01-30T02:52:12;14.47;;;5.63;;
36691;SDS011;22678;52.052;4.242;2024-01-30T02:54:38;11.77;;;5.57;;
36691;SDS011;22678;52.052;4.242;2024-01-30T02:57:03;11.83;;;5.30;;
36691;SDS011;22678;52.052;4.242;2024-01-30T02:59:28;9.95;;;5.47;;
36691;SDS011;22678;52.052;4.242;2024-01-30T03:01:54;10.87;;;5.73;;
36691;SDS011;22678;52.052;4.242;2024-01-30T03:04:19;9.53;;;4.97;;
36691;SDS011;22678;52.052;4.242;2024-01-30T03:06:45;11.90;;;6.85;;
36691;SDS011;22678;52.052;4.242;2024-01-30T03:09:12;11.00;;;6.20;;
36691;SDS011;22678;52.052;4.242;2024-01-30T03:11:37;9.20;;;5.70;;
36691;SDS011;22678;52.052;4.242;2024-01-30T03:14:02;12.85;;;7.35;;
36691;SDS011;22678;52.052;4.242;2024-01-30T03:16:29;10.95;;;5.55;;
36691;SDS011;22678;52.052;4.242;2024-01-30T03:18:54;9.35;;;4.63;;
36691;SDS011;22678;52.052;4.242;2024-01-30T03:21:19;14.15;;;7.05;;
36691;SDS011;22678;52.052;4.242;2024-01-30T03:23:45;10.48;;;5.88;;
36691;SDS011;22678;52.052;4.242;2024-01-30T03:26:10;9.60;;;5.93;;
36691;SDS011;22678;52.052;4.242;2024-01-30T03:28:37;12.25;;;6.63;;
36691;SDS011;22678;52.052;4.242;2024-01-30T03:31:02;12.20;;;5.03;;
36691;SDS011;22678;52.052;4.242;2024-01-30T03:33:28;11.75;;;6.22;;
36691;SDS011;22678;52.052;4.242;2024-01-30T03:35:53;9.52;;;5.55;;
36691;SDS011;22678;52.052;4.242;2024-01-30T03:38:18;11.82;;;4.90;;
36691;SDS011;22678;52.052;4.242;2024-01-30T03:40:44;11.70;;;5.97;;
36691;SDS011;22678;52.052;4.242;2024-01-30T03:43:09;9.13;;;4.93;;
36691;SDS011;22678;52.052;4.242;2024-01-30T03:45:34;9.35;;;5.97;;
36691;SDS011;22678;52.052;4.242;2024-01-30T03:48:00;11.70;;;5.55;;
36691;SDS011;22678;52.052;4.242;2024-01-30T03:50:25;10.03;;;6.10;;
36691;SDS011;22678;52.052;4.242;2024-01-30T03:52:50;10.30;;;5.25;;
36691;SDS011;22678;52.052;4.242;2024-01-30T03:55:16;8.93;;;5.75;;
36691;SDS011;22678;52.052;4.242;2024-01-30T03:57:41;11.00;;;6.60;;
36691;SDS011;22678;52.052;4.242;2024-01-30T04:00:07;8.63;;;4.93;;
36691;SDS011;22678;52.052;4.242;2024-01-30T04:02:33;12.83;;;5.90;;
36691;SDS011;22678;52.052;4.242;2024-01-30T04:04:58;15.95;;;7.30;;
36691;SDS011;22678;52.052;4.242;2024-01-30T04:07:24;10.70;;;6.27;;
36691;SDS011;22678;52.052;4.242;2024-01-30T04:09:49;12.23;;;5.78;;
36691;SDS011;22678;52.052;4.242;2024-01-30T04:12:14;12.23;;;5.22;;
36691;SDS011;22678;52.052;4.242;2024-01-30T04:14:40;14.70;;;7.22;;
36691;SDS011;22678;52.052;4.242;2024-01-30T04:17:05;11.63;;;6.07;;
36691;SDS011;22678;52.052;4.242;2024-01-30T04:19:30;11.13;;;5.07;;
36691;SDS011;22678;52.052;4.242;2024-01-30T04:21:56;10.70;;;5.25;;
36691;SDS011;22678;52.052;4.242;2024-01-30T04:24:21;15.38;;;5.63;;
36691;SDS011;22678;52.052;4.242;2024-01-30T04:26:46;10.10;;;5.45;;
36691;SDS011;22678;52.052;4.242;2024-01-30T04:29:11;10.65;;;5.30;;
36691;SDS011;22678;52.052;4.242;2024-01-30T04:31:37;9.75;;;5.93;;
36691;SDS011;22678;52.052;4.242;2024-01-30T04:34:02;10.75;;;5.53;;
36691;SDS011;22678;52.052;4.242;2024-01-30T04:36:28;14.10;;;5.63;;
36691;SDS011;22678;52.052;4.242;2024-01-30T04:38:53;11.18;;;5.75;;
36691;SDS011;22678;52.052;4.242;2024-01-30T04:41:18;10.73;;;5.55;;
36691;SDS011;22678;52.052;4.242;2024-01-30T04:43:44;14.45;;;6.57;;
36691;SDS011;22678;52.052;4.242;2024-01-30T04:46:09;10.77;;;5.78;;
36691;SDS011;22678;52.052;4.242;2024-01-30T04:48:34;9.27;;;5.63;;
36691;SDS011;22678;52.052;4.242;2024-01-30T04:51:00;11.27;;;5.55;;
36691;SDS011;22678;52.052;4.242;2024-01-30T04:53:28;13.18;;;6.63;;
36691;SDS011;22678;52.052;4.242;2024-01-30T04:55:54;9.70;;;4.93;;
36691;SDS011;22678;52.052;4.242;2024-01-30T04:58:20;12.55;;;7.50;;
36691;SDS011;22678;52.052;4.242;2024-01-30T05:00:45;11.88;;;6.10;;
36691;SDS011;22678;52.052;4.242;2024-01-30T05:03:13;9.38;;;4.95;;
36691;SDS011;22678;52.052;4.242;2024-01-30T05:05:38;10.82;;;6.45;;
36691;SDS011;22678;52.052;4.242;2024-01-30T05:08:04;8.95;;;4.43;;
36691;SDS011;22678;52.052;4.242;2024-01-30T05:10:29;11.70;;;5.57;;
36691;SDS011;22678;52.052;4.242;2024-01-30T05:12:55;14.32;;;7.38;;
36691;SDS011;22678;52.052;4.242;2024-01-30T05:15:20;15.48;;;5.30;;
36691;SDS011;22678;52.052;4.242;2024-01-30T05:17:46;11.30;;;5.43;;
36691;SDS011;22678;52.052;4.242;2024-01-30T05:20:11;12.98;;;6.28;;
36691;SDS011;22678;52.052;4.242;2024-01-30T05:22:37;15.02;;;5.88;;
36691;SDS011;22678;52.052;4.242;2024-01-30T05:25:03;13.45;;;5.72;;
36691;SDS011;22678;52.052;4.242;2024-01-30T05:27:29;14.65;;;8.15;;
36691;SDS011;22678;52.052;4.242;2024-01-30T05:29:54;15.18;;;6.75;;
36691;SDS011;22678;52.052;4.242;2024-01-30T05:32:20;10.50;;;5.72;;
36691;SDS011;22678;52.052;4.242;2024-01-30T05:34:45;12.60;;;5.60;;
36691;SDS011;22678;52.052;4.242;2024-01-30T05:37:10;12.13;;;5.15;;
36691;SDS011;22678;52.052;4.242;2024-01-30T05:39:39;10.55;;;5.38;;
36691;SDS011;22678;52.052;4.242;2024-01-30T05:42:04;16.60;;;6.13;;
36691;SDS011;22678;52.052;4.242;2024-01-30T05:44:30;8.13;;;5.55;;
36691;SDS011;22678;52.052;4.242;2024-01-30T05:46:56;22.10;;;6.65;;
36691;SDS011;22678;52.052;4.242;2024-01-30T05:49:21;15.88;;;6.22;;
36691;SDS011;22678;52.052;4.242;2024-01-30T05:51:46;10.40;;;4.97;;
36691;SDS011;22678;52.052;4.242;2024-01-30T05:54:12;11.23;;;5.55;;
36691;SDS011;22678;52.052;4.242;2024-01-30T05:56:37;14.10;;;5.00;;
36691;SDS011;22678;52.052;4.242;2024-01-30T05:59:02;11.68;;;5.95;;
36691;SDS011;22678;52.052;4.242;2024-01-30T06:01:28;12.82;;;5.75;;
36691;SDS011;22678;52.052;4.242;2024-01-30T06:03:54;12.38;;;5.82;;
36691;SDS011;22678;52.052;4.242;2024-01-30T06:06:20;11.38;;;5.70;;
36691;SDS011;22678;52.052;4.242;2024-01-30T06:08:45;11.60;;;6.18;;
36691;SDS011;22678;52.052;4.242;2024-01-30T06:11:11;13.05;;;6.38;;
36691;SDS011;22678;52.052;4.242;2024-01-30T06:13:37;15.18;;;5.70;;
36691;SDS011;22678;52.052;4.242;2024-01-30T06:16:02;13.45;;;5.97;;
36691;SDS011;22678;52.052;4.242;2024-01-30T06:18:27;11.68;;;5.00;;
36691;SDS011;22678;52.052;4.242;2024-01-30T06:20:55;12.80;;;6.32;;
36691;SDS011;22678;52.052;4.242;2024-01-30T06:23:20;9.38;;;5.60;;
36691;SDS011;22678;52.052;4.242;2024-01-30T06:25:46;11.65;;;5.88;;
36691;SDS011;22678;52.052;4.242;2024-01-30T06:28:12;12.00;;;4.75;;
36691;SDS011;22678;52.052;4.242;2024-01-30T06:30:37;15.93;;;6.90;;
36691;SDS011;22678;52.052;4.242;2024-01-30T06:33:02;14.82;;;7.50;;
36691;SDS011;22678;52.052;4.242;2024-01-30T06:35:28;12.70;;;5.35;;
36691;SDS011;22678;52.052;4.242;2024-01-30T06:37:54;12.68;;;5.60;;
36691;SDS011;22678;52.052;4.242;2024-01-30T06:40:19;9.10;;;5.85;;
36691;SDS011;22678;52.052;4.242;2024-01-30T06:42:44;13.55;;;6.43;;
36691;SDS011;22678;52.052;4.242;2024-01-30T06:45:09;12.52;;;6.20;;
36691;SDS011;22678;52.052;4.242;2024-01-30T06:47:35;13.73;;;7.13;;
36691;SDS011;22678;52.052;4.242;2024-01-30T06:50:00;10.18;;;5.72;;
36691;SDS011;22678;52.052;4.242;2024-01-30T06:52:27;14.82;;;5.68;;
36691;SDS011;22678;52.052;4.242;2024-01-30T06:54:52;11.27;;;5.85;;
36691;SDS011;22678;52.052;4.242;2024-01-30T06:57:17;13.07;;;6.55;;
36691;SDS011;22678;52.052;4.242;2024-01-30T06:59:43;15.80;;;6.63;;
36691;SDS011;22678;52.052;4.242;2024-01-30T07:02:12;15.13;;;6.90;;
36691;SDS011;22678;52.052;4.242;2024-01-30T07:04:37;17.40;;;5.97;;
36691;SDS011;22678;52.052;4.242;2024-01-30T07:07:03;17.55;;;5.78;;
36691;SDS011;22678;52.052;4.242;2024-01-30T07:09:30;12.80;;;5.07;;
36691;SDS011;22678;52.052;4.242;2024-01-30T07:11:55;9.85;;;5.40;;
36691;SDS011;22678;52.052;4.242;2024-01-30T07:14:23;7.95;;;5.18;;
36691;SDS011;22678;52.052;4.242;2024-01-30T07:16:48;14.38;;;7.20;;
36691;SDS011;22678;52.052;4.242;2024-01-30T07:19:14;15.30;;;6.40;;
36691;SDS011;22678;52.052;4.242;2024-01-30T07:21:39;16.60;;;6.85;;
36691;SDS011;22678;52.052;4.242;2024-01-30T07:24:05;11.10;;;7.63;;
36691;SDS011;22678;52.052;4.242;2024-01-30T07:26:31;13.35;;;5.63;;
36691;SDS011;22678;52.052;4.242;2024-01-30T07:28:56;11.82;;;5.40;;
36691;SDS011;22678;52.052;4.242;2024-01-30T07:31:21;18.02;;;6.80;;
36691;SDS011;22678;52.052;4.242;2024-01-30T07:33:48;12.75;;;5.32;;
36691;SDS011;22678;52.052;4.242;2024-01-30T07:36:13;11.32;;;5.78;;
36691;SDS011;22678;52.052;4.242;2024-01-30T07:38:39;14.45;;;6.13;;
36691;SDS011;22678;52.052;4.242;2024-01-30T07:41:05;14.15;;;6.75;;
36691;SDS011;22678;52.052;4.242;2024-01-30T07:43:30;12.93;;;6.00;;
36691;SDS011;22678;52.052;4.242;2024-01-30T07:45:56;11.55;;;6.35;;
36691;SDS011;22678;52.052;4.242;2024-01-30T07:48:21;15.43;;;5.43;;
36691;SDS011;22678;52.052;4.242;2024-01-30T07:50:46;11.73;;;6.68;;
36691;SDS011;22678;52.052;4.242;2024-01-30T07:53:12;14.77;;;6.95;;
36691;SDS011;22678;52.052;4.242;2024-01-30T07:55:37;21.52;;;8.38;;
36691;SDS011;22678;52.052;4.242;2024-01-30T07:58:03;16.80;;;6.43;;
36691;SDS011;22678;52.052;4.242;2024-01-30T08:00:29;14.25;;;6.35;;
36691;SDS011;22678;52.052;4.242;2024-01-30T08:02:55;17.48;;;7.13;;
36691;SDS011;22678;52.052;4.242;2024-01-30T08:05:20;9.10;;;7.05;;
36691;SDS011;22678;52.052;4.242;2024-01-30T08:07:47;13.88;;;7.10;;
36691;SDS011;22678;52.052;4.242;2024-01-30T08:10:14;14.30;;;7.13;;
36691;SDS011;22678;52.052;4.242;2024-01-30T08:12:39;12.02;;;6.85;;
36691;SDS011;22678;52.052;4.242;2024-01-30T08:15:04;13.68;;;7.88;;
36691;SDS011;22678;52.052;4.242;2024-01-30T08:17:30;14.07;;;7.70;;
36691;SDS011;22678;52.052;4.242;2024-01-30T08:19:56;16.30;;;8.25;;
36691;SDS011;22678;52.052;4.242;2024-01-30T08:22:21;16.23;;;7.95;;
36691;SDS011;22678;52.052;4.242;2024-01-30T08:24:46;15.82;;;7.93;;
36691;SDS011;22678;52.052;4.242;2024-01-30T08:27:12;16.88;;;7.13;;
36691;SDS011;22678;52.052;4.242;2024-01-30T08:29:37;18.58;;;9.38;;
36691;SDS011;22678;52.052;4.242;2024-01-30T08:32:03;14.18;;;7.40;;
36691;SDS011;22678;52.052;4.242;2024-01-30T08:34:31;17.15;;;9.55;;
36691;SDS011;22678;52.052;4.242;2024-01-30T08:36:57;19.92;;;8.85;;
36691;SDS011;22678;52.052;4.242;2024-01-30T08:39:22;17.08;;;8.52;;
36691;SDS011;22678;52.052;4.242;2024-01-30T08:41:47;18.05;;;8.30;;
36691;SDS011;22678;52.052;4.242;2024-01-30T08:44:13;13.25;;;8.32;;
36691;SDS011;22678;52.052;4.242;2024-01-30T08:46:38;18.92;;;7.55;;
36691;SDS011;22678;52.052;4.242;2024-01-30T08:49:03;19.17;;;9.15;;
36691;SDS011;22678;52.052;4.242;2024-01-30T08:51:29;16.80;;;8.70;;
36691;SDS011;22678;52.052;4.242;2024-01-30T08:53:55;9.45;;;5.05;;
36691;SDS011;22678;52.052;4.242;2024-01-30T08:56:20;34.35;;;6.70;;
36691;SDS011;22678;52.052;4.242;2024-01-30T08:58:46;14.10;;;4.35;;
36691;SDS011;22678;52.052;4.242;2024-01-30T09:01:11;13.52;;;3.42;;
36691;SDS011;22678;52.052;4.242;2024-01-30T09:03:37;6.05;;;1.95;;
36691;SDS011;22678;52.052;4.242;2024-01-30T09:06:07;14.10;;;3.65;;
36691;SDS011;22678;52.052;4.242;2024-01-30T09:08:33;11.32;;;2.08;;
36691;SDS011;22678;52.052;4.242;2024-01-30T09:11:01;11.90;;;2.85;;
36691;SDS011;22678;52.052;4.242;2024-01-30T09:13:33;10.27;;;2.90;;
36691;SDS011;22678;52.052;4.242;2024-01-30T09:15:58;11.88;;;1.33;;
36691;SDS011;22678;52.052;4.242;2024-01-30T09:18:23;7.28;;;1.67;;
36691;SDS011;22678;52.052;4.242;2024-01-30T09:20:49;8.05;;;1.33;;
36691;SDS011;22678;52.052;4.242;2024-01-30T09:23:14;9.07;;;3.08;;
36691;SDS011;22678;52.052;4.242;2024-01-30T09:25:39;8.82;;;1.20;;
36691;SDS011;22678;52.052;4.242;2024-01-30T09:28:05;10.30;;;2.65;;
36691;SDS011;22678;52.052;4.242;2024-01-30T09:30:30;12.45;;;1.58;;
36691;SDS011;22678;52.052;4.242;2024-01-30T09:32:56;8.13;;;2.03;;
36691;SDS011;22678;52.052;4.242;2024-01-30T09:35:21;7.20;;;0.93;;
36691;SDS011;22678;52.052;4.242;2024-01-30T09:37:46;8.02;;;2.40;;
36691;SDS011;22678;52.052;4.242;2024-01-30T09:40:12;5.47;;;0.70;;
36691;SDS011;22678;52.052;4.242;2024-01-30T09:42:37;5.95;;;0.40;;
36691;SDS011;22678;52.052;4.242;2024-01-30T09:45:03;10.35;;;0.75;;
36691;SDS011;22678;52.052;4.242;2024-01-30T09:47:36;10.77;;;0.55;;
36691;SDS011;22678;52.052;4.242;2024-01-30T09:50:09;4.13;;;0.70;;
36691;SDS011;22678;52.052;4.242;2024-01-30T09:52:36;3.78;;;0.22;;
36691;SDS011;22678;52.052;4.242;2024-01-30T09:55:02;3.97;;;0.20;;
36691;SDS011;22678;52.052;4.242;2024-01-30T09:57:28;3.28;;;0.52;;
36691;SDS011;22678;52.052;4.242;2024-01-30T09:59:53;2.05;;;0.10;;
36691;SDS011;22678;52.052;4.242;2024-01-30T10:02:22;2.90;;;0.55;;
36691;SDS011;22678;52.052;4.242;2024-01-30T10:04:51;8.23;;;1.38;;
36691;SDS011;22678;52.052;4.242;2024-01-30T10:07:17;4.07;;;0.40;;
36691;SDS011;22678;52.052;4.242;2024-01-30T10:09:43;8.55;;;0.80;;
36691;SDS011;22678;52.052;4.242;2024-01-30T10:12:09;10.55;;;1.35;;
36691;SDS011;22678;52.052;4.242;2024-01-30T10:14:38;5.03;;;0.40;;
36691;SDS011;22678;52.052;4.242;2024-01-30T10:17:07;8.38;;;0.75;;
36691;SDS011;22678;52.052;4.242;2024-01-30T10:19:37;13.13;;;3.35;;
36691;SDS011;22678;52.052;4.242;2024-01-30T10:22:03;11.95;;;2.05;;
36691;SDS011;22678;52.052;4.242;2024-01-30T10:24:29;4.68;;;0.70;;
36691;SDS011;22678;52.052;4.242;2024-01-30T10:26:55;5.75;;;0.77;;
36691;SDS011;22678;52.052;4.242;2024-01-30T10:29:20;7.38;;;1.55;;
36691;SDS011;22678;52.052;4.242;2024-01-30T10:31:46;5.15;;;0.35;;
36691;SDS011;22678;52.052;4.242;2024-01-30T10:34:31;6.13;;;0.30;;
36691;SDS011;22678;52.052;4.242;2024-01-30T10:39:32;4.27;;;1.20;;
36691;SDS011;22678;52.052;4.242;2024-01-30T10:42:03;6.15;;;0.30;;
36691;SDS011;22678;52.052;4.242;2024-01-30T10:44:37;7.67;;;1.17;;
36691;SDS011;22678;52.052;4.242;2024-01-30T10:47:11;7.32;;;2.60;;
36691;SDS011;22678;52.052;4.242;2024-01-30T10:49:40;7.93;;;1.70;;
36691;SDS011;22678;52.052;4.242;2024-01-30T10:52:08;2.70;;;0.40;;
36691;SDS011;22678;52.052;4.242;2024-01-30T10:54:34;2.30;;;0.28;;
36691;SDS011;22678;52.052;4.242;2024-01-30T10:57:00;3.47;;;1.10;;
36691;SDS011;22678;52.052;4.242;2024-01-30T10:59:29;2.58;;;0.98;;
36691;SDS011;22678;52.052;4.242;2024-01-30T11:01:57;2.53;;;0.63;;
36691;SDS011;22678;52.052;4.242;2024-01-30T11:04:23;4.05;;;1.58;;
36691;SDS011;22678;52.052;4.242;2024-01-30T11:06:50;7.90;;;1.10;;
36691;SDS011;22678;52.052;4.242;2024-01-30T11:09:17;8.45;;;0.68;;
36691;SDS011;22678;52.052;4.242;2024-01-30T11:11:55;13.10;;;1.00;;
36691;SDS011;22678;52.052;4.242;2024-01-30T11:14:29;12.13;;;0.73;;
36691;SDS011;22678;52.052;4.242;2024-01-30T11:16:58;6.50;;;0.50;;
36691;SDS011;22678;52.052;4.242;2024-01-30T11:19:24;7.90;;;1.23;;
36691;SDS011;22678;52.052;4.242;2024-01-30T11:21:51;6.03;;;2.43;;
36691;SDS011;22678;52.052;4.242;2024-01-30T11:24:22;15.73;;;0.90;;
36691;SDS011;22678;52.052;4.242;2024-01-30T11:26:55;5.63;;;0.60;;
36691;SDS011;22678;52.052;4.242;2024-01-30T11:31:54;7.53;;;1.73;;
36691;SDS011;22678;52.052;4.242;2024-01-30T11:34:21;9.23;;;1.37;;
36691;SDS011;22678;52.052;4.242;2024-01-30T11:37:03;3.47;;;0.73;;
36691;SDS011;22678;52.052;4.242;2024-01-30T11:39:31;4.93;;;1.05;;
36691;SDS011;22678;52.052;4.242;2024-01-30T11:41:57;10.85;;;1.00;;
36691;SDS011;22678;52.052;4.242;2024-01-30T11:44:23;9.35;;;3.20;;
36691;SDS011;22678;52.052;4.242;2024-01-30T11:46:49;9.17;;;2.23;;
36691;SDS011;22678;52.052;4.242;2024-01-30T11:49:16;14.23;;;1.47;;
36691;SDS011;22678;52.052;4.242;2024-01-30T11:51:46;12.27;;;1.30;;
36691;SDS011;22678;52.052;4.242;2024-01-30T11:54:15;5.32;;;1.52;;
36691;SDS011;22678;52.052;4.242;2024-01-30T11:56:41;9.90;;;2.25;;
36691;SDS011;22678;52.052;4.242;2024-01-30T11:59:08;18.77;;;1.60;;
36691;SDS011;22678;52.052;4.242;2024-01-30T12:01:33;16.75;;;0.98;;
36691;SDS011;22678;52.052;4.242;2024-01-30T12:03:59;9.93;;;0.70;;
36691;SDS011;22678;52.052;4.242;2024-01-30T12:06:25;7.97;;;1.05;;
36691;SDS011;22678;52.052;4.242;2024-01-30T12:09:01;6.47;;;1.02;;
36691;SDS011;22678;52.052;4.242;2024-01-30T12:11:30;4.40;;;1.38;;
36691;SDS011;22678;52.052;4.242;2024-01-30T12:13:56;7.47;;;0.90;;
36691;SDS011;22678;52.052;4.242;2024-01-30T12:16:21;9.73;;;3.03;;
36691;SDS011;22678;52.052;4.242;2024-01-30T12:18:47;9.70;;;0.77;;
36691;SDS011;22678;52.052;4.242;2024-01-30T12:21:16;10.88;;;0.90;;
36691;SDS011;22678;52.052;4.242;2024-01-30T12:23:42;10.57;;;1.13;;
36691;SDS011;22678;52.052;4.242;2024-01-30T12:26:08;10.23;;;0.65;;
36691;SDS011;22678;52.052;4.242;2024-01-30T12:28:34;9.45;;;2.60;;
36691;SDS011;22678;52.052;4.242;2024-01-30T12:31:03;9.15;;;1.77;;
36691;SDS011;22678;52.052;4.242;2024-01-30T12:33:32;14.30;;;1.38;;
36691;SDS011;22678;52.052;4.242;2024-01-30T12:36:00;11.23;;;1.85;;
36691;SDS011;22678;52.052;4.242;2024-01-30T12:38:26;3.10;;;0.93;;
36691;SDS011;22678;52.052;4.242;2024-01-30T12:40:55;7.78;;;1.08;;
36691;SDS011;22678;52.052;4.242;2024-01-30T12:43:21;5.82;;;1.92;;
36691;SDS011;22678;52.052;4.242;2024-01-30T12:45:47;11.10;;;1.02;;
36691;SDS011;22678;52.052;4.242;2024-01-30T12:48:13;7.20;;;1.30;;
36691;SDS011;22678;52.052;4.242;2024-01-30T12:50:39;4.23;;;1.53;;
36691;SDS011;22678;52.052;4.242;2024-01-30T12:53:04;10.60;;;2.53;;
36691;SDS011;22678;52.052;4.242;2024-01-30T12:55:30;9.30;;;0.80;;
36691;SDS011;22678;52.052;4.242;2024-01-30T12:57:56;4.45;;;1.35;;
36691;SDS011;22678;52.052;4.242;2024-01-30T13:00:21;4.90;;;0.90;;
36691;SDS011;22678;52.052;4.242;2024-01-30T13:02:47;7.28;;;2.03;;
36691;SDS011;22678;52.052;4.242;2024-01-30T13:05:13;2.35;;;0.50;;
36691;SDS011;22678;52.052;4.242;2024-01-30T13:07:38;5.97;;;1.67;;
36691;SDS011;22678;52.052;4.242;2024-01-30T13:10:04;2.55;;;0.60;;
36691;SDS011;22678;52.052;4.242;2024-01-30T13:12:30;3.37;;;0.60;;
36691;SDS011;22678;52.052;4.242;2024-01-30T13:14:57;3.83;;;0.73;;
36691;SDS011;22678;52.052;4.242;2024-01-30T13:17:22;7.38;;;0.82;;
36691;SDS011;22678;52.052;4.242;2024-01-30T13:19:48;5.65;;;1.17;;
36691;SDS011;22678;52.052;4.242;2024-01-30T13:22:15;5.13;;;0.80;;
36691;SDS011;22678;52.052;4.242;2024-01-30T13:24:40;6.22;;;1.10;;
36691;SDS011;22678;52.052;4.242;2024-01-30T13:27:06;9.20;;;0.87;;
36691;SDS011;22678;52.052;4.242;2024-01-30T13:29:32;4.30;;;1.13;;
36691;SDS011;22678;52.052;4.242;2024-01-30T13:31:57;3.03;;;1.30;;
36691;SDS011;22678;52.052;4.242;2024-01-30T13:34:23;6.60;;;1.30;;
36691;SDS011;22678;52.052;4.242;2024-01-30T13:36:48;3.27;;;1.07;;
36691;SDS011;22678;52.052;4.242;2024-01-30T13:39:14;8.47;;;1.50;;
36691;SDS011;22678;52.052;4.242;2024-01-30T13:41:41;8.70;;;2.97;;
36691;SDS011;22678;52.052;4.242;2024-01-30T13:44:07;16.13;;;2.03;;
36691;SDS011;22678;52.052;4.242;2024-01-30T13:46:33;5.93;;;1.88;;
36691;SDS011;22678;52.052;4.242;2024-01-30T13:48:59;8.57;;;1.15;;
36691;SDS011;22678;52.052;4.242;2024-01-30T13:51:25;8.20;;;1.53;;
36691;SDS011;22678;52.052;4.242;2024-01-30T13:53:50;4.75;;;1.05;;
36691;SDS011;22678;52.052;4.242;2024-01-30T13:56:16;9.00;;;1.10;;
36691;SDS011;22678;52.052;4.242;2024-01-30T13:58:41;4.93;;;1.43;;
36691;SDS011;22678;52.052;4.242;2024-01-30T14:01:06;6.27;;;1.13;;
36691;SDS011;22678;52.052;4.242;2024-01-30T14:03:32;10.40;;;0.90;;
36691;SDS011;22678;52.052;4.242;2024-01-30T14:05:57;7.70;;;0.93;;
36691;SDS011;22678;52.052;4.242;2024-01-30T14:08:23;2.30;;;0.63;;
36691;SDS011;22678;52.052;4.242;2024-01-30T14:10:51;2.40;;;0.90;;
36691;SDS011;22678;52.052;4.242;2024-01-30T14:13:17;5.65;;;1.50;;
36691;SDS011;22678;52.052;4.242;2024-01-30T14:15:42;11.50;;;1.53;;
36691;SDS011;22678;52.052;4.242;2024-01-30T14:18:08;8.27;;;1.00;;
36691;SDS011;22678;52.052;4.242;2024-01-30T14:20:34;10.77;;;2.70;;
36691;SDS011;22678;52.052;4.242;2024-01-30T14:22:59;6.07;;;1.27;;
36691;SDS011;22678;52.052;4.242;2024-01-30T14:25:24;3.73;;;1.00;;
36691;SDS011;22678;52.052;4.242;2024-01-30T14:27:50;10.80;;;1.60;;
36691;SDS011;22678;52.052;4.242;2024-01-30T14:30:16;6.70;;;0.90;;
36691;SDS011;22678;52.052;4.242;2024-01-30T14:32:42;7.13;;;1.40;;
36691;SDS011;22678;52.052;4.242;2024-01-30T14:35:09;5.57;;;2.07;;
36691;SDS011;22678;52.052;4.242;2024-01-30T14:37:35;6.27;;;1.50;;